• Join FlightAware (Why Join?)
  • Login
  • US Flag 
08:28AM EDT


 

Airport Tracker/Info


-or-


 

Live Flight TrackerFlight Track Log ✈ N842CP ✈ 14-Jul-2013 ✈ KMRY - KLHM

Flight Track Log - Related Links

Times and Time Zones

All times are in EDT time to prevent confusion due to time zone crossing. See the N842CP flight status page for this flight to view local times or setup timezone preferences in your user account.

Time Position Orientation Groundspeed Altitude Reporting Facility
EDT Latitude Longitude Course Direction KTS MPH feet Rate Location/Type
10:11PM 36.6000 -121.8833 360° North 115 132 1,200  Level Northern Cal TRACON
10:12PM 36.6333 -121.8833 360° North 129 148 2,000 960 Climbing Northern Cal TRACON
10:13PM 36.6667 -121.8833 360° North 114 131 3,200 1,020 Climbing Northern Cal TRACON
10:14PM 36.7000 -121.8833 360° North 111 128 4,100 720 Climbing Northern Cal TRACON
10:15PM 36.7167 -121.8500 58° Northeast 137 158 4,700 600 Climbing Northern Cal TRACON
10:16PM 36.7500 -121.8167 39° Northeast 153 176 5,300 600 Climbing Northern Cal TRACON
10:17PM 36.7833 -121.7833 39° Northeast 155 178 5,900 600 Climbing Northern Cal TRACON
10:18PM 36.8000 -121.7333 67° East 156 180 6,500 540 Climbing Northern Cal TRACON
10:18PM 36.8333 -121.7000 39° Northeast 159 183 7,000 240 Climbing Northern Cal TRACON
10:19PM 36.8667 -121.6667 39° Northeast 182 209 7,000  Level Northern Cal TRACON
10:20PM 36.9000 -121.6167 50° Northeast 176 203 7,000  Level Northern Cal TRACON
10:21PM 36.9100 -121.6008 52° Northeast 179 206 7,000  Level Oakland Center
10:22PM 36.9497 -121.5475 47° Northeast 177 204 7,000  Level Oakland Center
10:23PM 36.9833 -121.5031 47° Northeast 176 203 7,000  Level Oakland Center
10:24PM 37.0164 -121.4583 47° Northeast 176 203 7,000  Level Oakland Center
10:25PM 37.0472 -121.4161 48° Northeast 170 196 7,100  Climbing Oakland Center
10:26PM 37.0800 -121.3719 47° Northeast 171 197 7,100  Level Oakland Center
10:27PM 37.1139 -121.3294 45° Northeast 172 198 7,100  Level Oakland Center
10:28PM 37.1464 -121.2869 46° Northeast 170 196 7,100  Level Oakland Center
10:29PM 37.1847 -121.2519 36° Northeast 171 197 7,100  Level Oakland Center
10:30PM 37.2369 -121.2192 27° Northeast 172 198 7,100  Level Oakland Center
10:31PM 37.2847 -121.1872 28° Northeast 180 207 7,100 -180 Level Oakland Center
10:32PM 37.3328 -121.1567 27° Northeast 186 214 6,800 -420 Descending Oakland Center
10:33PM 37.3847 -121.1636 354° North 182 209 6,300 -420 Descending Oakland Center
10:34PM 37.4403 -121.1694 355° North 194 223 6,000 -180 Descending Oakland Center
10:35PM 37.4914 -121.1761 354° North 188 216 6,000  Level Oakland Center
10:36PM 37.5406 -121.1819 355° North 181 208 6,000  Level Oakland Center
10:37PM 37.5906 -121.1883 354° North 180 207 6,000  Level Oakland Center
10:38PM 37.6422 -121.1953 354° North 180 207 6,000  Level Oakland Center
10:39PM 37.7000 -121.2000 356° North 183 211 6,000  Level Northern Cal TRACON
10:40PM 37.7500 -121.2167 345° North 183 211 6,000  Level Northern Cal TRACON
10:42PM 37.8167 -121.2167 360° North 179 206 6,000  Level Northern Cal TRACON
10:43PM 37.8667 -121.2167 360° North 171 197 6,000  Level Northern Cal TRACON
10:44PM 37.9167 -121.2333 345° North 218 251 6,000  Level Northern Cal TRACON
10:45PM 37.9667 -121.2333 360° North 177 204 6,000  Level Northern Cal TRACON
10:46PM 38.0167 -121.2333 360° North 183 211 6,000  Level Northern Cal TRACON
10:47PM 38.0667 -121.2500 345° North 182 209 6,000  Level Northern Cal TRACON
10:48PM 38.1167 -121.2500 360° North 184 212 6,000  Level Northern Cal TRACON
10:49PM 38.1667 -121.2667 345° North 181 208 6,000 -120 Level Northern Cal TRACON
10:50PM 38.2167 -121.2667 360° North 186 214 5,800 -300 Descending Northern Cal TRACON
10:51PM 38.2833 -121.2667 360° North 191 220 5,500 -300 Descending Northern Cal TRACON
10:52PM 38.3333 -121.2833 345° North 188 216 5,200 -300 Descending Northern Cal TRACON
10:53PM 38.3800 -121.2856 358° North 189 217 5,000 -240 Descending Oakland Center
10:54PM 38.4269 -121.2914 354° North 185 213 4,800 -180 Descending Oakland Center
10:55PM 38.4747 -121.2972 355° North 178 205 4,700 -240 Descending Oakland Center
10:56PM 38.5256 -121.3019 356° North 180 207 4,400 -360 Descending Oakland Center
10:57PM 38.5861 -121.3097 354° North 182 209 4,000 -240 Descending Oakland Center
10:58PM 38.6333 -121.3167 353° North 172 198 4,000  Level Northern Cal TRACON
10:59PM 38.6667 -121.3167 360° North 169 194 4,000 -300 Level Northern Cal TRACON
11:00PM 38.7167 -121.3333 345° North 164 189 3,500 -540 Descending Northern Cal TRACON
11:01PM 38.7667 -121.3333 360° North 156 180 3,000 -720 Descending Northern Cal TRACON
11:02PM 38.8000 -121.3333 360° North 132 152 2,100 -840 Descending Northern Cal TRACON
11:02PM 38.8333 -121.3333 360° North 129 148 1,500 -600 Descending Northern Cal TRACON
11:04PM 38.8667 -121.3333 360° North 125 144 1,000 -240 Descending Northern Cal TRACON
11:05PM 38.9000 -121.3333 360° North 119 137 1,000 -120 Level Northern Cal TRACON
11:06PM 38.9333 -121.3333 360° North 118 136 800 -300 Descending Northern Cal TRACON
11:06PM 38.9333 -121.3500 270° West 120 138 500 -360 Descending Northern Cal TRACON